createdAt,value
2022-10-07T00:01:21.985Z,6.33
2022-10-07T00:03:49.005Z,5.00
2022-10-07T00:06:21.488Z,5.97
2022-10-07T00:08:53.097Z,6.53
2022-10-07T00:11:25.880Z,5.73
2022-10-07T00:14:01.321Z,5.33
2022-10-07T00:16:37.365Z,3.97
2022-10-07T00:19:14.311Z,2.10
2022-10-07T00:21:50.858Z,3.83
2022-10-07T00:24:23.225Z,4.53
2022-10-07T00:26:50.303Z,4.67
2022-10-07T00:29:23.645Z,3.83
2022-10-07T00:31:57.194Z,3.47
2022-10-07T00:34:25.661Z,2.90
2022-10-07T00:36:52.665Z,2.00
2022-10-07T00:39:19.810Z,3.90
2022-10-07T00:41:56.025Z,5.07
2022-10-07T00:44:32.478Z,3.70
2022-10-07T00:47:20.354Z,3.50
2022-10-07T00:50:11.532Z,4.40
2022-10-07T00:52:44.458Z,5.20
2022-10-07T00:55:23.368Z,3.67
2022-10-07T00:58:12.958Z,2.53
2022-10-07T01:00:47.657Z,4.00
2022-10-07T01:03:19.038Z,3.70
2022-10-07T01:05:57.771Z,3.00
2022-10-07T01:08:26.343Z,3.40
2022-10-07T01:11:35.257Z,7.03
2022-10-07T01:14:33.230Z,3.93
2022-10-07T01:17:31.921Z,5.67
2022-10-07T01:20:24.946Z,3.30
2022-10-07T01:23:07.013Z,3.60
2022-10-07T01:25:46.333Z,2.80
2022-10-07T01:28:22.733Z,3.43
2022-10-07T01:30:58.880Z,5.33
2022-10-07T01:33:29.399Z,5.27
2022-10-07T01:36:00.368Z,10.53
2022-10-07T01:38:29.082Z,3.53
2022-10-07T01:41:04.476Z,2.97
2022-10-07T01:43:32.926Z,5.17
2022-10-07T01:45:59.911Z,4.43
2022-10-07T01:48:26.750Z,3.50
2022-10-07T01:50:57.143Z,5.13
2022-10-07T01:53:51.163Z,3.73
2022-10-07T01:56:26.849Z,2.63
2022-10-07T01:59:18.634Z,5.50
2022-10-07T02:01:56.276Z,5.13
2022-10-07T02:04:26.293Z,4.57
2022-10-07T02:07:11.213Z,3.27
2022-10-07T02:09:59.300Z,3.97
2022-10-07T02:12:57.575Z,3.03
2022-10-07T02:15:35.002Z,3.97
2022-10-07T02:18:07.377Z,4.93
2022-10-07T02:20:37.815Z,3.67
2022-10-07T02:23:08.450Z,3.57
2022-10-07T02:25:39.759Z,3.27
2022-10-07T02:28:09.297Z,4.73
2022-10-07T02:30:37.771Z,5.37
2022-10-07T02:33:08.010Z,3.27
2022-10-07T02:35:47.573Z,5.00
2022-10-07T02:38:16.711Z,3.73
2022-10-07T02:41:31.639Z,4.33
2022-10-07T02:44:29.015Z,5.40
2022-10-07T02:47:06.875Z,4.83
2022-10-07T02:49:38.101Z,5.20
2022-10-07T02:52:13.986Z,4.73
2022-10-07T02:54:56.315Z,5.90
2022-10-07T02:57:24.755Z,4.40
2022-10-07T02:59:52.491Z,5.67
2022-10-07T03:02:56.365Z,7.33
2022-10-07T03:05:29.480Z,4.43
2022-10-07T03:08:03.944Z,5.67
2022-10-07T03:10:32.735Z,3.50
2022-10-07T03:13:00.418Z,4.33
2022-10-07T03:15:28.105Z,5.67
2022-10-07T03:17:55.982Z,4.60
2022-10-07T03:20:22.886Z,5.20
2022-10-07T03:22:50.294Z,3.80
2022-10-07T03:25:19.036Z,6.10
2022-10-07T03:27:48.416Z,5.73
2022-10-07T03:30:15.691Z,6.37
2022-10-07T03:32:42.481Z,5.53
2022-10-07T03:35:10.673Z,8.53
2022-10-07T03:37:38.286Z,3.90
2022-10-07T03:40:07.590Z,3.20
2022-10-07T03:42:34.580Z,5.60
2022-10-07T03:45:01.568Z,3.53
2022-10-07T03:47:28.817Z,3.93
2022-10-07T03:49:56.707Z,5.87
2022-10-07T03:52:24.194Z,5.73
2022-10-07T03:54:53.191Z,6.87
2022-10-07T03:57:38.454Z,5.57
2022-10-07T04:00:06.510Z,5.63
2022-10-07T04:02:41.580Z,5.87
2022-10-07T04:05:09.451Z,7.80
2022-10-07T04:07:36.822Z,4.53
2022-10-07T04:10:04.126Z,8.17
2022-10-07T04:12:33.378Z,7.13
2022-10-07T04:15:01.942Z,6.83
2022-10-07T04:17:29.946Z,6.90
2022-10-07T04:19:57.889Z,6.63
2022-10-07T04:22:27.781Z,7.87
2022-10-07T04:25:13.082Z,9.43
2022-10-07T04:27:51.693Z,7.60
2022-10-07T04:30:20.202Z,5.17
2022-10-07T04:32:50.722Z,9.07
2022-10-07T04:35:22.259Z,7.90
2022-10-07T04:37:51.365Z,6.93
2022-10-07T04:40:19.967Z,7.43
2022-10-07T04:43:06.781Z,5.43
2022-10-07T04:45:35.559Z,6.37
2022-10-07T04:48:05.694Z,3.93
2022-10-07T04:50:34.175Z,5.20
2022-10-07T04:53:01.436Z,5.93
2022-10-07T04:55:37.275Z,5.80
2022-10-07T04:58:05.079Z,6.07
2022-10-07T05:00:33.262Z,4.13
2022-10-07T05:03:00.341Z,5.43
2022-10-07T05:05:28.022Z,7.90
2022-10-07T05:07:55.267Z,6.63
2022-10-07T05:10:24.323Z,4.13
2022-10-07T05:12:55.751Z,6.30
2022-10-07T05:15:23.681Z,4.50
2022-10-07T05:17:55.930Z,5.77
2022-10-07T05:20:26.659Z,7.77
2022-10-07T05:22:55.003Z,4.40
2022-10-07T05:25:21.995Z,4.27
2022-10-07T05:27:55.724Z,5.30
2022-10-07T05:30:22.730Z,5.73
2022-10-07T05:32:50.498Z,5.03
2022-10-07T05:35:17.768Z,3.93
2022-10-07T05:37:50.167Z,6.40
2022-10-07T05:40:20.162Z,5.20
2022-10-07T05:42:47.540Z,3.83
2022-10-07T05:45:14.334Z,9.63
2022-10-07T05:47:41.299Z,8.17
2022-10-07T05:50:08.962Z,3.33
2022-10-07T05:52:36.178Z,4.33
2022-10-07T05:55:03.219Z,8.23
2022-10-07T05:57:30.721Z,4.27
2022-10-07T05:59:58.994Z,5.80
2022-10-07T06:02:26.591Z,3.53
2022-10-07T06:04:53.933Z,9.10
2022-10-07T06:07:27.053Z,2.20
2022-10-07T06:10:14.628Z,4.30
2022-10-07T06:12:59.875Z,3.30
2022-10-07T06:15:26.833Z,5.23
2022-10-07T06:17:53.749Z,8.23
2022-10-07T06:20:21.654Z,3.10
2022-10-07T06:22:53.387Z,3.43
2022-10-07T06:25:21.057Z,5.00
2022-10-07T06:27:53.733Z,4.57
2022-10-07T06:30:21.817Z,5.60
2022-10-07T06:32:49.090Z,4.10
2022-10-07T06:35:17.084Z,3.87
2022-10-07T06:37:44.370Z,2.97
2022-10-07T06:40:11.920Z,3.93
2022-10-07T06:42:39.383Z,3.40
2022-10-07T06:45:23.483Z,10.57
2022-10-07T06:47:53.306Z,5.47
2022-10-07T06:50:21.702Z,4.50
2022-10-07T06:52:48.867Z,3.53
2022-10-07T06:55:16.122Z,3.90
2022-10-07T06:57:46.090Z,11.70
2022-10-07T07:00:16.050Z,5.43
2022-10-07T07:02:44.476Z,4.50
2022-10-07T07:05:14.440Z,3.60
2022-10-07T07:07:42.314Z,5.20
2022-10-07T07:10:09.550Z,5.80
2022-10-07T07:12:40.717Z,3.47
2022-10-07T07:15:09.744Z,2.87
2022-10-07T07:17:38.230Z,2.30
2022-10-07T07:20:06.050Z,2.73
2022-10-07T07:22:32.830Z,3.73
2022-10-07T07:24:59.789Z,4.43
2022-10-07T07:27:26.587Z,3.47
2022-10-07T07:29:53.351Z,2.43
2022-10-07T07:32:20.602Z,3.63
2022-10-07T07:34:47.771Z,4.20
2022-10-07T07:37:20.392Z,5.97
2022-10-07T07:39:51.362Z,4.60
2022-10-07T07:42:18.992Z,5.17
2022-10-07T07:44:46.751Z,7.20
2022-10-07T07:47:17.097Z,5.30
2022-10-07T07:49:45.828Z,5.53
2022-10-07T07:52:17.667Z,2.63
2022-10-07T07:54:51.877Z,5.50
2022-10-07T07:57:19.586Z,5.80
2022-10-07T07:59:46.735Z,3.07
2022-10-07T08:02:16.497Z,3.93
2022-10-07T08:04:47.893Z,3.43
2022-10-07T08:07:15.493Z,6.47
2022-10-07T08:09:45.430Z,3.07
2022-10-07T08:12:14.527Z,4.97
2022-10-07T08:14:43.136Z,3.50
2022-10-07T08:17:10.037Z,3.57
2022-10-07T08:19:37.354Z,3.07
2022-10-07T08:22:04.884Z,5.03
2022-10-07T08:24:32.432Z,3.10
2022-10-07T08:27:05.101Z,3.60
2022-10-07T08:29:31.920Z,4.47
2022-10-07T08:31:58.800Z,6.70
2022-10-07T08:34:25.629Z,6.30
2022-10-07T08:36:52.382Z,3.37
2022-10-07T08:39:19.171Z,5.27
2022-10-07T08:42:03.392Z,2.60
2022-10-07T08:44:34.207Z,5.13
2022-10-07T08:47:08.752Z,3.97
2022-10-07T08:49:54.474Z,3.97
2022-10-07T08:52:34.249Z,5.70
2022-10-07T08:55:01.626Z,4.83
2022-10-07T08:57:43.484Z,4.27
2022-10-07T09:00:13.747Z,6.67
2022-10-07T09:03:06.527Z,3.90
2022-10-07T09:05:45.719Z,5.53
2022-10-07T09:08:20.609Z,6.70
2022-10-07T09:10:50.201Z,4.40
2022-10-07T09:13:29.284Z,4.80
2022-10-07T09:16:16.069Z,5.50
2022-10-07T09:18:53.406Z,5.37
2022-10-07T09:21:25.576Z,4.73
2022-10-07T09:23:58.616Z,4.90
2022-10-07T09:26:26.757Z,3.53
2022-10-07T09:28:53.780Z,7.00
2022-10-07T09:31:24.786Z,4.47
2022-10-07T09:33:53.962Z,4.37
2022-10-07T09:36:20.876Z,3.93
2022-10-07T09:38:50.446Z,6.57
2022-10-07T09:41:32.880Z,9.70
2022-10-07T09:44:11.007Z,6.20
2022-10-07T09:46:53.682Z,6.87
2022-10-07T09:49:31.552Z,5.77
2022-10-07T09:52:07.361Z,5.10
2022-10-07T09:54:36.502Z,4.97
2022-10-07T09:57:05.745Z,5.80
2022-10-07T09:59:36.942Z,4.73
2022-10-07T10:02:24.911Z,4.60
2022-10-07T10:04:57.225Z,4.73
2022-10-07T10:07:36.190Z,6.20
2022-10-07T10:10:18.208Z,4.60
2022-10-07T10:12:48.270Z,4.30
2022-10-07T10:15:24.364Z,3.70
2022-10-07T10:17:51.709Z,5.40
2022-10-07T10:20:21.211Z,5.40
2022-10-07T10:22:48.346Z,6.07
2022-10-07T10:25:37.559Z,9.77
2022-10-07T10:28:35.772Z,5.53
2022-10-07T10:31:17.817Z,6.87
2022-10-07T10:34:02.803Z,6.53
2022-10-07T10:36:33.019Z,5.90
2022-10-07T10:39:11.509Z,6.20
2022-10-07T10:41:52.441Z,3.83
2022-10-07T10:44:37.816Z,3.77
2022-10-07T10:47:13.637Z,4.37
2022-10-07T10:50:04.814Z,3.60
2022-10-07T10:52:49.979Z,7.03
2022-10-07T10:56:01.563Z,5.53
2022-10-07T10:58:34.326Z,4.50
2022-10-07T11:01:12.939Z,5.63
2022-10-07T11:04:18.442Z,6.73
2022-10-07T11:06:51.069Z,5.77
2022-10-07T11:09:30.493Z,4.13
2022-10-07T11:12:00.587Z,5.90
2022-10-07T11:14:30.122Z,4.43
2022-10-07T11:17:02.853Z,7.10
2022-10-07T11:19:32.174Z,5.63
2022-10-07T11:22:00.406Z,7.43
2022-10-07T11:24:56.906Z,5.17
2022-10-07T11:27:29.725Z,6.20
2022-10-07T11:30:03.968Z,4.97
2022-10-07T11:32:57.984Z,8.47
2022-10-07T11:35:43.979Z,4.50
2022-10-07T11:38:10.813Z,7.93
2022-10-07T11:41:00.342Z,4.53
2022-10-07T11:43:35.467Z,6.37
2022-10-07T11:46:20.306Z,6.60
2022-10-07T11:48:57.953Z,4.83
2022-10-07T11:51:31.016Z,6.00
2022-10-07T11:54:02.898Z,4.70
2022-10-07T11:57:00.337Z,6.13
2022-10-07T11:59:46.009Z,6.33
2022-10-07T12:02:28.276Z,5.47
2022-10-07T12:04:57.472Z,6.77
2022-10-07T12:07:38.601Z,6.40
2022-10-07T12:10:27.234Z,4.20
2022-10-07T12:13:00.474Z,6.23
2022-10-07T12:15:41.974Z,8.10
2022-10-07T12:18:12.330Z,5.83
2022-10-07T12:20:45.058Z,5.90
2022-10-07T12:23:20.768Z,6.70
2022-10-07T12:26:30.444Z,7.73
2022-10-07T12:28:57.774Z,6.80
2022-10-07T12:31:24.517Z,6.50
2022-10-07T12:34:08.459Z,7.63
2022-10-07T12:36:36.401Z,4.63
2022-10-07T12:39:09.548Z,6.53
2022-10-07T12:41:39.681Z,6.73
2022-10-07T12:44:38.599Z,5.53
2022-10-07T12:47:15.056Z,14.30
2022-10-07T12:49:52.063Z,8.40
2022-10-07T12:52:44.331Z,8.50
2022-10-07T12:55:38.966Z,5.50
2022-10-07T12:58:39.107Z,5.60
2022-10-07T13:01:32.762Z,8.27
2022-10-07T13:04:05.499Z,7.67
2022-10-07T13:06:32.208Z,6.30
2022-10-07T13:09:27.147Z,5.40
2022-10-07T13:12:06.785Z,6.17
2022-10-07T13:14:52.488Z,5.67
2022-10-07T13:17:41.366Z,7.27
2022-10-07T13:20:50.784Z,8.23
2022-10-07T13:23:24.529Z,5.70
2022-10-07T13:25:56.164Z,4.90
2022-10-07T13:28:45.231Z,7.13
2022-10-07T13:31:20.316Z,7.30
2022-10-07T13:33:48.357Z,6.33
2022-10-07T13:36:27.986Z,6.00
2022-10-07T13:39:10.379Z,5.83
2022-10-07T13:41:39.753Z,11.90
2022-10-07T13:44:06.756Z,7.70
2022-10-07T13:46:36.048Z,7.40
2022-10-07T13:49:03.321Z,6.10
2022-10-07T13:51:36.506Z,6.07
2022-10-07T13:54:17.500Z,7.83
2022-10-07T13:56:45.371Z,6.70
2022-10-07T13:59:17.998Z,6.60
2022-10-07T14:02:07.577Z,7.37
2022-10-07T14:04:34.557Z,7.77
2022-10-07T14:07:09.282Z,12.20
2022-10-07T14:10:00.148Z,7.37
2022-10-07T14:12:32.374Z,7.47
2022-10-07T14:15:13.287Z,8.10
2022-10-07T14:17:54.668Z,10.07
2022-10-07T14:20:32.006Z,9.33
2022-10-07T14:23:19.261Z,7.27
2022-10-07T14:26:17.608Z,8.10
2022-10-07T14:28:44.935Z,6.33
2022-10-07T14:31:37.737Z,6.27
2022-10-07T14:34:37.071Z,8.87
2022-10-07T14:37:10.754Z,7.33
2022-10-07T14:39:49.115Z,8.53
2022-10-07T14:42:32.915Z,7.43
2022-10-07T14:45:03.084Z,6.50
2022-10-07T14:47:37.136Z,21.93
2022-10-07T14:50:04.481Z,12.60
2022-10-07T14:52:43.500Z,10.83
2022-10-07T14:55:29.888Z,9.77
2022-10-07T14:57:56.711Z,9.83
2022-10-07T15:00:25.572Z,21.83
2022-10-07T15:02:54.483Z,11.97
2022-10-07T15:05:22.919Z,11.37
2022-10-07T15:07:50.770Z,14.03
2022-10-07T15:10:20.988Z,11.37
2022-10-07T15:12:48.646Z,7.10
2022-10-07T15:15:16.449Z,12.13
2022-10-07T15:17:44.391Z,9.10
2022-10-07T15:20:14.154Z,10.50
2022-10-07T15:22:41.517Z,10.60
2022-10-07T15:25:10.330Z,14.53
2022-10-07T15:27:37.864Z,10.47
2022-10-07T15:30:07.179Z,9.10
2022-10-07T15:32:34.195Z,9.70
2022-10-07T15:35:01.591Z,12.17
2022-10-07T15:37:28.551Z,10.43
2022-10-07T15:39:55.521Z,13.07
2022-10-07T15:42:25.600Z,11.47
2022-10-07T15:44:52.890Z,12.67
2022-10-07T15:47:19.921Z,10.83
2022-10-07T15:49:46.779Z,10.13
2022-10-07T15:52:13.586Z,12.77
2022-10-07T15:54:40.443Z,12.37
2022-10-07T15:57:08.360Z,10.50
2022-10-07T15:59:35.707Z,11.30
2022-10-07T16:02:03.832Z,11.63
2022-10-07T16:04:30.621Z,16.40
2022-10-07T16:06:58.107Z,17.73
2022-10-07T16:09:25.141Z,13.00
2022-10-07T16:11:52.121Z,9.00
2022-10-07T16:14:18.918Z,13.37
2022-10-07T16:16:46.124Z,12.53
2022-10-07T16:19:13.066Z,13.60
2022-10-07T16:21:41.990Z,12.03
2022-10-07T16:24:17.191Z,13.70
2022-10-07T16:26:45.162Z,12.47
2022-10-07T16:29:36.755Z,10.33
2022-10-07T16:32:04.697Z,14.03
2022-10-07T19:23:15.997Z,20.50
2022-10-07T19:25:48.667Z,19.57
2022-10-07T19:28:15.487Z,18.03
2022-10-07T19:30:42.651Z,20.20
2022-10-07T19:33:10.937Z,18.90
2022-10-07T19:35:38.556Z,16.83
2022-10-07T19:38:06.168Z,18.67
2022-10-07T19:40:44.564Z,18.87
2022-10-07T19:43:12.096Z,17.50
2022-10-07T19:45:40.621Z,18.50
2022-10-07T19:48:13.997Z,20.03
2022-10-07T19:50:41.352Z,19.87
2022-10-07T19:53:08.221Z,17.27
2022-10-07T19:55:35.166Z,14.67
2022-10-07T19:58:03.102Z,16.20
2022-10-07T20:00:31.100Z,16.63
2022-10-07T20:03:00.513Z,19.03
2022-10-07T20:05:29.135Z,16.73
2022-10-07T20:07:59.504Z,17.33
2022-10-07T20:10:34.424Z,17.17
2022-10-07T20:13:04.670Z,16.83
2022-10-07T20:15:31.550Z,18.53
2022-10-07T20:18:03.637Z,17.87
2022-10-07T20:20:38.318Z,19.90
2022-10-07T20:23:09.043Z,14.80
2022-10-07T20:25:38.385Z,17.43
2022-10-07T20:28:05.700Z,16.93
2022-10-07T20:30:34.870Z,16.00
2022-10-07T20:33:12.736Z,15.17
2022-10-07T20:35:42.570Z,11.67
2022-10-07T20:38:29.301Z,14.60
2022-10-07T20:41:23.800Z,13.23
2022-10-07T20:43:50.671Z,18.30
2022-10-07T20:46:23.519Z,18.67
2022-10-07T20:48:53.852Z,15.83
2022-10-07T20:51:22.867Z,18.00
2022-10-07T20:54:00.536Z,15.23
2022-10-07T20:56:34.066Z,14.50
2022-10-07T20:59:00.901Z,15.27
2022-10-07T21:01:53.803Z,15.13
2022-10-07T21:04:26.914Z,15.60
2022-10-07T21:06:54.515Z,11.50
2022-10-07T21:09:21.341Z,14.43
2022-10-07T21:11:49.303Z,16.60
2022-10-07T21:14:22.776Z,13.40
2022-10-07T21:16:52.388Z,16.90
2022-10-07T21:19:19.476Z,14.60
2022-10-07T21:21:50.698Z,16.10
2022-10-07T21:24:20.910Z,18.27
2022-10-07T21:26:49.874Z,16.30
2022-10-07T21:29:24.389Z,18.00
2022-10-07T21:31:53.209Z,25.60
2022-10-07T21:37:01.764Z,20.77
2022-10-07T21:39:28.964Z,15.77
2022-10-07T21:42:13.218Z,16.77
2022-10-07T21:44:43.134Z,15.43
2022-10-07T21:47:13.524Z,15.07
2022-10-07T21:49:41.131Z,14.00
2022-10-07T21:52:07.930Z,17.87
2022-10-07T21:54:40.773Z,12.07
2022-10-07T21:57:16.474Z,12.13
2022-10-07T21:59:46.123Z,12.83
2022-10-07T22:02:15.994Z,13.63
2022-10-07T22:04:50.976Z,12.20
2022-10-07T22:07:36.290Z,15.00
2022-10-07T22:10:03.345Z,14.93
2022-10-07T22:12:30.185Z,15.73
2022-10-07T22:15:03.223Z,11.07
2022-10-07T22:17:34.786Z,11.57
2022-10-07T22:20:02.337Z,15.13
2022-10-07T22:22:29.159Z,13.07
2022-10-07T22:24:58.744Z,15.63
2022-10-07T22:27:26.167Z,14.97
2022-10-07T22:29:52.974Z,14.10
2022-10-07T22:32:19.774Z,13.53
2022-10-07T22:35:11.210Z,13.67
2022-10-07T22:37:38.297Z,17.43
2022-10-07T22:40:05.738Z,12.97
2022-10-07T22:42:35.957Z,13.33
2022-10-07T22:45:02.845Z,15.53
2022-10-07T22:47:29.585Z,15.63
2022-10-07T22:49:56.333Z,21.90
2022-10-07T22:52:23.145Z,16.80
2022-10-07T22:54:49.898Z,14.60
2022-10-07T22:57:18.985Z,15.93
2022-10-07T22:59:45.768Z,15.33
2022-10-07T23:02:12.599Z,15.10
2022-10-07T23:04:39.399Z,17.07
2022-10-07T23:07:06.208Z,14.63
2022-10-07T23:09:32.991Z,14.90
2022-10-07T23:11:59.854Z,14.00
2022-10-07T23:14:26.660Z,13.73
2022-10-07T23:16:53.436Z,14.23
2022-10-07T23:19:22.303Z,16.30
2022-10-07T23:21:49.132Z,11.13
2022-10-07T23:24:16.022Z,13.27
2022-10-07T23:26:46.025Z,13.63
2022-10-07T23:29:13.327Z,11.83
2022-10-07T23:31:40.361Z,12.13
2022-10-07T23:34:07.221Z,9.57
2022-10-07T23:36:34.769Z,14.03
2022-10-07T23:39:01.675Z,11.67
2022-10-07T23:41:30.501Z,13.17
2022-10-07T23:43:59.327Z,12.80
2022-10-07T23:46:28.003Z,9.80
2022-10-07T23:48:56.054Z,10.63
2022-10-07T23:51:26.090Z,9.97
2022-10-07T23:53:53.213Z,10.97
2022-10-07T23:56:20.067Z,11.53
2022-10-07T23:58:47.181Z,11.87
